Cumberland, North Carolina
Current Conditions -  °F | °C
As of 12:53 PM on Saturday 20 Dec 2014 (Local Time) from KFAY Reporting Station
Haze Haze  
Wind Chill: 35°   Ceiling: 600
Heat Index: 39°   Visibility: 6mi
Dew Point: 37°   Wind: 6mph
Humidity: 93%   Direction: 40°NE
Pressure: 30.25"   Gusts: NA
Location:  35.01°N, 78.97°W
Report Text: KFAY 201753Z 04005KT 6SM BR BKN006 BKN042 OVC060 04/03 A3025 RMK AO2 RAB03E43 SLP241 P0001 60006 T00390028 10044 20033 58009
Loading
Personal Weather Stations






























Interactive Weather Map New forecast layout! Learn more

10-Day Weather Forecast

Advertisements
Track Severe Weather on mobile